Time;durP1;ratioP1;P1;durP2;ratioP2;P2;SDS_P1;SDS_P2;PMS_P1;PMS_P2;Temp;Humidity;BMP_temperature;BMP_pressure;BME280_temperature;BME280_humidity;BME280_pressure;Samples;Min_cycle;Max_cycle;Signal;HPM_P1;HPM_P2
2021/11/13 00:00:04;;;;;;;28.8;24.0;;;;;;;8.4;84.5;100770;;;;
2021/11/13 00:02:04;;;;;;;28.8;24.0;;;;;;;8.5;84.6;100770;;;;
2021/11/13 00:04:04;;;;;;;28.8;24.0;;;;;;;8.4;84.6;100770;;;;
2021/11/13 00:06:04;;;;;;;28.8;24.0;;;;;;;8.5;84.6;100770;;;;
2021/11/13 00:08:04;;;;;;;28.8;24.0;;;;;;;8.6;84.3;100770;;;;
2021/11/13 00:10:04;;;;;;;26.8;22.8;;;;;;;8.5;84.5;100770;;;;
2021/11/13 00:12:05;;;;;;;26.8;22.8;;;;;;;8.6;84.3;100770;;;;
2021/11/13 00:16:04;;;;;;;26.8;22.8;;;;;;;8.5;84.6;100760;;;;
2021/11/13 00:18:04;;;;;;;26.8;22.8;;;;;;;8.6;84.0;100770;;;;
2021/11/13 00:26:04;;;;;;;26.8;22.8;;;;;;;8.5;84.3;100750;;;;
2021/11/13 00:28:04;;;;;;;26.8;22.8;;;;;;;8.6;84.3;100740;;;;
2021/11/13 00:34:04;;;;;;;25.5;21.8;;;;;;;8.7;84.1;100730;;;;
2021/11/13 00:36:04;;;;;;;25.5;21.8;;;;;;;8.6;84.4;100730;;;;
2021/11/13 00:38:04;;;;;;;25.5;21.8;;;;;;;8.7;84.1;100730;;;;
2021/11/13 00:44:04;;;;;;;25.5;21.8;;;;;;;8.6;84.7;100720;;;;
2021/11/13 00:54:04;;;;;;;26.2;22.2;;;;;;;8.5;85.2;100710;;;;
2021/11/13 00:56:04;;;;;;;26.2;22.2;;;;;;;8.6;85.3;100710;;;;
2021/11/13 00:58:04;;;;;;;26.2;22.2;;;;;;;8.7;84.9;100710;;;;
2021/11/13 01:06:04;;;;;;;26.2;22.2;;;;;;;8.8;85.3;100710;;;;
2021/11/13 01:08:04;;;;;;;26.2;22.2;;;;;;;8.7;85.1;100700;;;;
2021/11/13 01:18:04;;;;;;;26.9;23.0;;;;;;;8.8;85.4;100700;;;;
2021/11/13 01:20:04;;;;;;;26.9;23.0;;;;;;;8.7;85.4;100700;;;;
2021/11/13 01:30:04;;;;;;;28.9;24.7;;;;;;;8.8;86.4;100690;;;;
2021/11/13 01:34:05;;;;;;;28.9;24.7;;;;;;;8.7;85.7;100680;;;;
2021/11/13 01:40:04;;;;;;;28.9;24.7;;;;;;;8.8;86.1;100680;;;;
2021/11/13 01:46:04;;;;;;;28.9;24.7;;;;;;;8.9;86.3;100660;;;;
2021/11/13 01:48:04;;;;;;;28.9;24.7;;;;;;;8.8;85.9;100660;;;;
2021/11/13 01:52:08;;;;;;;33.8;26.6;;;;;;;8.9;86.1;100660;;;;
2021/11/13 01:54:06;;;;;;;33.8;26.6;;;;;;;8.7;86.8;100670;;;;
2021/11/13 01:56:04;;;;;;;33.8;26.6;;;;;;;8.8;87.0;100660;;;;
2021/11/13 02:00:04;;;;;;;33.8;26.6;;;;;;;8.7;86.9;100660;;;;
2021/11/13 02:02:04;;;;;;;33.8;26.6;;;;;;;8.8;87.2;100650;;;;
2021/11/13 02:04:04;;;;;;;33.8;26.6;;;;;;;8.9;87.0;100650;;;;
2021/11/13 02:06:04;;;;;;;33.8;26.6;;;;;;;8.8;86.6;100640;;;;
2021/11/13 02:08:04;;;;;;;33.8;26.6;;;;;;;8.9;86.8;100650;;;;
2021/11/13 02:12:04;;;;;;;34.3;27.0;;;;;;;9.0;86.7;100650;;;;
2021/11/13 02:14:06;;;;;;;34.3;27.0;;;;;;;8.9;86.9;100650;;;;
2021/11/13 02:24:04;;;;;;;34.3;27.0;;;;;;;9.0;87.8;100640;;;;
2021/11/13 02:26:04;;;;;;;34.3;27.0;;;;;;;9.1;87.3;100630;;;;
2021/11/13 02:34:04;;;;;;;34.8;27.8;;;;;;;9.0;86.9;100630;;;;
2021/11/13 02:36:04;;;;;;;34.8;27.8;;;;;;;9.1;86.7;100630;;;;
2021/11/13 02:38:04;;;;;;;34.8;27.8;;;;;;;9.2;86.5;100630;;;;
2021/11/13 02:40:04;;;;;;;34.8;27.8;;;;;;;9.1;86.4;100630;;;;
2021/11/13 02:44:04;;;;;;;34.8;27.8;;;;;;;9.0;87.6;100630;;;;
2021/11/13 02:46:04;;;;;;;34.8;27.8;;;;;;;9.1;87.6;100620;;;;
2021/11/13 02:50:04;;;;;;;34.8;28.0;;;;;;;9.2;87.5;100630;;;;
2021/11/13 02:52:04;;;;;;;34.8;28.0;;;;;;;9.1;87.3;100630;;;;
2021/11/13 02:56:05;;;;;;;34.8;28.0;;;;;;;9.2;87.6;100620;;;;
2021/11/13 03:04:04;;;;;;;34.8;28.0;;;;;;;9.1;86.9;100630;;;;
2021/11/13 03:08:04;;;;;;;34.8;28.0;;;;;;;9.2;87.9;100630;;;;
2021/11/13 03:24:04;;;;;;;34.4;28.3;;;;;;;9.3;87.7;100630;;;;
2021/11/13 03:28:05;;;;;;;34.4;28.3;;;;;;;9.4;87.6;100630;;;;
2021/11/13 03:30:04;;;;;;;32.3;26.1;;;;;;;9.3;87.7;100620;;;;
2021/11/13 03:32:04;;;;;;;32.3;26.1;;;;;;;9.4;87.5;100630;;;;
2021/11/13 03:34:05;;;;;;;32.3;26.1;;;;;;;9.3;87.5;100630;;;;
2021/11/13 03:36:05;;;;;;;32.3;26.1;;;;;;;9.4;87.6;100620;;;;
2021/11/13 03:40:04;;;;;;;32.3;26.1;;;;;;;9.3;87.4;100630;;;;
2021/11/13 03:48:04;;;;;;;32.3;26.1;;;;;;;9.4;87.7;100630;;;;
2021/11/13 03:52:04;;;;;;;28.0;24.1;;;;;;;9.6;87.8;100620;;;;
2021/11/13 03:54:04;;;;;;;28.0;24.1;;;;;;;9.5;87.6;100610;;;;
2021/11/13 03:56:04;;;;;;;28.0;24.1;;;;;;;9.4;87.6;100620;;;;
2021/11/13 04:08:04;;;;;;;28.0;24.1;;;;;;;9.3;88.2;100610;;;;
2021/11/13 04:10:06;;;;;;;25.6;22.9;;;;;;;9.4;88.4;100610;;;;
2021/11/13 04:12:05;;;;;;;25.6;22.9;;;;;;;9.5;88.2;100610;;;;
2021/11/13 04:14:04;;;;;;;25.6;22.9;;;;;;;9.4;87.7;100610;;;;
2021/11/13 04:18:04;;;;;;;25.6;22.9;;;;;;;9.5;88.1;100620;;;;
2021/11/13 04:24:04;;;;;;;25.6;22.9;;;;;;;9.4;87.9;100620;;;;
2021/11/13 04:26:04;;;;;;;25.6;22.9;;;;;;;9.5;88.3;100620;;;;
2021/11/13 04:32:04;;;;;;;23.9;21.5;;;;;;;9.6;87.9;100620;;;;
2021/11/13 04:38:04;;;;;;;23.9;21.5;;;;;;;9.6;88.5;100620;;;;
2021/11/13 04:40:04;;;;;;;23.9;21.5;;;;;;;9.5;88.3;100620;;;;
2021/11/13 04:42:04;;;;;;;23.9;21.5;;;;;;;9.6;88.0;100630;;;;
2021/11/13 04:46:04;;;;;;;23.9;21.5;;;;;;;9.5;88.4;100630;;;;
2021/11/13 04:50:04;;;;;;;22.9;20.5;;;;;;;9.6;88.9;100630;;;;
2021/11/13 04:56:04;;;;;;;22.9;20.5;;;;;;;9.5;88.4;100640;;;;
2021/11/13 04:58:04;;;;;;;22.9;20.5;;;;;;;9.6;88.8;100640;;;;
2021/11/13 05:00:04;;;;;;;22.9;20.5;;;;;;;9.7;88.6;100640;;;;
2021/11/13 05:02:04;;;;;;;22.9;20.5;;;;;;;9.6;88.2;100630;;;;
2021/11/13 05:06:04;;;;;;;22.9;20.5;;;;;;;9.7;87.8;100630;;;;
2021/11/13 05:10:04;;;;;;;23.1;20.7;;;;;;;9.8;88.2;100640;;;;
2021/11/13 05:12:04;;;;;;;23.1;20.7;;;;;;;9.7;88.1;100640;;;;
2021/11/13 05:14:04;;;;;;;23.1;20.7;;;;;;;9.6;88.3;100640;;;;
2021/11/13 05:16:04;;;;;;;23.1;20.7;;;;;;;9.7;88.3;100640;;;;
2021/11/13 05:42:04;;;;;;;22.1;19.9;;;;;;;9.6;88.7;100650;;;;
2021/11/13 05:44:04;;;;;;;22.1;19.9;;;;;;;9.7;89.3;100660;;;;
2021/11/13 05:46:04;;;;;;;22.1;19.9;;;;;;;9.8;89.0;100660;;;;
2021/11/13 05:48:04;;;;;;;22.1;19.9;;;;;;;9.7;88.9;100660;;;;
2021/11/13 05:50:04;;;;;;;28.9;22.4;;;;;;;9.8;88.7;100670;;;;
2021/11/13 05:52:04;;;;;;;28.9;22.4;;;;;;;9.7;88.8;100660;;;;
2021/11/13 05:58:04;;;;;;;28.9;22.4;;;;;;;9.8;89.6;100660;;;;
2021/11/13 06:12:04;;;;;;;25.4;22.6;;;;;;;9.9;89.8;100660;;;;
2021/11/13 06:16:06;;;;;;;25.4;22.6;;;;;;;9.8;90.1;100670;;;;
2021/11/13 06:18:04;;;;;;;25.4;22.6;;;;;;;9.7;89.9;100670;;;;
2021/11/13 06:22:04;;;;;;;25.4;22.6;;;;;;;9.8;90.3;100680;;;;
2021/11/13 06:24:07;;;;;;;25.4;22.6;;;;;;;9.7;90.1;100680;;;;
2021/11/13 06:26:04;;;;;;;25.4;22.6;;;;;;;9.8;89.9;100680;;;;
2021/11/13 06:30:04;;;;;;;27.4;22.7;;;;;;;9.9;89.6;100680;;;;
2021/11/13 06:32:04;;;;;;;27.4;22.7;;;;;;;9.8;90.1;100690;;;;
2021/11/13 06:40:04;;;;;;;27.4;22.7;;;;;;;10.0;90.5;100690;;;;
2021/11/13 06:44:04;;;;;;;27.4;22.7;;;;;;;9.9;90.2;100700;;;;
2021/11/13 06:58:04;;;;;;;27.2;22.5;;;;;;;9.8;90.8;100710;;;;
2021/11/13 07:04:04;;;;;;;27.2;22.5;;;;;;;9.9;91.1;100720;;;;
2021/11/13 07:06:04;;;;;;;27.2;22.5;;;;;;;9.8;90.8;100720;;;;
2021/11/13 07:08:04;;;;;;;27.2;22.5;;;;;;;9.9;91.3;100720;;;;
2021/11/13 07:12:04;;;;;;;26.8;22.3;;;;;;;10.0;90.9;100730;;;;
2021/11/13 07:20:04;;;;;;;26.8;22.3;;;;;;;9.8;90.1;100740;;;;
2021/11/13 07:26:05;;;;;;;26.8;22.3;;;;;;;9.9;91.5;100740;;;;
2021/11/13 07:28:06;;;;;;;26.8;22.3;;;;;;;10.0;91.7;100740;;;;
2021/11/13 07:30:04;;;;;;;26.8;23.1;;;;;;;9.9;91.7;100750;;;;
2021/11/13 07:32:04;;;;;;;26.8;23.1;;;;;;;9.8;91.6;100750;;;;
2021/11/13 07:34:04;;;;;;;26.8;23.1;;;;;;;9.9;91.7;100750;;;;
2021/11/13 07:44:04;;;;;;;26.8;23.1;;;;;;;10.1;91.7;100760;;;;
2021/11/13 07:46:04;;;;;;;26.8;23.1;;;;;;;10.0;91.7;100770;;;;
2021/11/13 07:48:07;;;;;;;32.3;25.2;;;;;;;10.1;91.6;100770;;;;
2021/11/13 07:56:04;;;;;;;32.3;25.2;;;;;;;10.2;91.7;100780;;;;
2021/11/13 07:58:04;;;;;;;32.3;25.2;;;;;;;10.1;91.2;100780;;;;
2021/11/13 08:10:04;;;;;;;38.2;25.3;;;;;;;10.2;91.9;100780;;;;
2021/11/13 08:14:05;;;;;;;38.2;25.3;;;;;;;10.3;92.0;100790;;;;
2021/11/13 08:16:04;;;;;;;38.2;25.3;;;;;;;10.2;91.6;100790;;;;
2021/11/13 08:22:04;;;;;;;38.2;25.3;;;;;;;10.3;91.9;100790;;;;
2021/11/13 08:28:04;;;;;;;39.0;26.9;;;;;;;10.4;92.2;100800;;;;
2021/11/13 08:30:04;;;;;;;39.0;26.9;;;;;;;10.3;92.2;100790;;;;
2021/11/13 08:34:04;;;;;;;39.0;26.9;;;;;;;10.4;92.2;100800;;;;
2021/11/13 08:36:04;;;;;;;39.0;26.9;;;;;;;10.3;92.3;100800;;;;
2021/11/13 08:38:05;;;;;;;39.0;26.9;;;;;;;10.4;92.4;100800;;;;
2021/11/13 08:40:04;;;;;;;39.0;26.9;;;;;;;10.6;92.2;100800;;;;
2021/11/13 08:42:08;;;;;;;39.0;26.9;;;;;;;10.5;92.1;100800;;;;
2021/11/13 08:46:04;;;;;;;39.0;26.9;;;;;;;10.6;92.9;100800;;;;
2021/11/13 08:50:04;;;;;;;41.6;30.4;;;;;;;10.7;92.4;100800;;;;
2021/11/13 08:56:04;;;;;;;41.6;30.4;;;;;;;10.6;92.5;100790;;;;
2021/11/13 08:58:04;;;;;;;41.6;30.4;;;;;;;10.7;92.5;100800;;;;
2021/11/13 09:02:08;;;;;;;41.6;30.4;;;;;;;10.8;92.3;100810;;;;
2021/11/13 09:04:04;;;;;;;41.6;30.4;;;;;;;10.7;92.0;100810;;;;
2021/11/13 09:12:04;;;;;;;44.3;29.2;;;;;;;10.8;92.2;100800;;;;
2021/11/13 09:14:04;;;;;;;44.3;29.2;;;;;;;10.7;92.1;100810;;;;
2021/11/13 09:20:04;;;;;;;44.3;29.2;;;;;;;10.8;92.2;100810;;;;
2021/11/13 09:24:04;;;;;;;44.3;29.2;;;;;;;10.7;92.6;100810;;;;
2021/11/13 09:28:04;;;;;;;47.7;31.1;;;;;;;10.8;93.0;100820;;;;
2021/11/13 09:34:04;;;;;;;47.7;31.1;;;;;;;10.9;92.4;100820;;;;
2021/11/13 09:40:04;;;;;;;47.7;31.1;;;;;;;11.0;92.7;100830;;;;
2021/11/13 09:44:04;;;;;;;47.7;31.1;;;;;;;11.1;93.1;100830;;;;
2021/11/13 09:58:04;;;;;;;41.1;28.8;;;;;;;11.2;92.9;100840;;;;
2021/11/13 10:04:04;;;;;;;41.1;28.8;;;;;;;11.3;92.5;100840;;;;
2021/11/13 10:08:04;;;;;;;36.3;27.4;;;;;;;11.4;92.6;100840;;;;
2021/11/13 10:12:04;;;;;;;36.3;27.4;;;;;;;11.3;92.3;100850;;;;
2021/11/13 10:14:04;;;;;;;36.3;27.4;;;;;;;11.4;92.0;100850;;;;
2021/11/13 10:16:04;;;;;;;36.3;27.4;;;;;;;11.3;92.2;100860;;;;
2021/11/13 10:18:04;;;;;;;36.3;27.4;;;;;;;11.4;92.6;100860;;;;
2021/11/13 10:24:04;;;;;;;36.3;27.4;;;;;;;11.5;92.0;100860;;;;
2021/11/13 10:26:04;;;;;;;36.3;27.4;;;;;;;11.4;91.6;100860;;;;
2021/11/13 10:30:04;;;;;;;31.3;23.6;;;;;;;11.5;92.4;100860;;;;
2021/11/13 10:36:05;;;;;;;31.3;23.6;;;;;;;11.6;92.4;100870;;;;
2021/11/13 10:40:04;;;;;;;31.3;23.6;;;;;;;11.5;91.9;100870;;;;
2021/11/13 10:42:04;;;;;;;31.3;23.6;;;;;;;11.6;92.1;100870;;;;
2021/11/13 10:46:04;;;;;;;31.3;23.6;;;;;;;11.5;91.4;100870;;;;
2021/11/13 10:48:04;;;;;;;24.3;20.3;;;;;;;11.6;92.2;100870;;;;
2021/11/13 10:52:04;;;;;;;24.3;20.3;;;;;;;11.7;92.3;100870;;;;
2021/11/13 10:54:04;;;;;;;24.3;20.3;;;;;;;11.8;92.4;100870;;;;
2021/11/13 10:58:04;;;;;;;24.3;20.3;;;;;;;11.7;92.3;100870;;;;
2021/11/13 11:02:04;;;;;;;24.3;20.3;;;;;;;11.8;92.3;100860;;;;
2021/11/13 11:10:08;;;;;;;25.8;19.5;;;;;;;11.9;92.4;100860;;;;
2021/11/13 11:16:04;;;;;;;25.8;19.5;;;;;;;11.8;92.3;100860;;;;
2021/11/13 11:18:04;;;;;;;25.8;19.5;;;;;;;12.0;91.9;100860;;;;
2021/11/13 11:20:04;;;;;;;25.8;19.5;;;;;;;11.8;91.5;100860;;;;
2021/11/13 11:22:04;;;;;;;25.8;19.5;;;;;;;11.9;91.3;100860;;;;
2021/11/13 11:28:06;;;;;;;22.5;19.9;;;;;;;12.0;91.7;100860;;;;
2021/11/13 11:30:04;;;;;;;22.5;19.9;;;;;;;11.9;90.8;100870;;;;
2021/11/13 11:40:05;;;;;;;22.5;19.9;;;;;;;12.0;91.8;100860;;;;
2021/11/13 11:42:04;;;;;;;22.5;19.9;;;;;;;12.1;91.2;100870;;;;
2021/11/13 11:48:04;;;;;;;19.2;17.2;;;;;;;12.2;91.4;100870;;;;
2021/11/13 11:52:04;;;;;;;19.2;17.2;;;;;;;12.3;91.3;100870;;;;
2021/11/13 11:54:04;;;;;;;19.2;17.2;;;;;;;12.2;91.5;100870;;;;
2021/11/13 12:02:04;;;;;;;19.2;17.2;;;;;;;12.0;90.3;100870;;;;
2021/11/13 12:06:04;;;;;;;19.2;17.2;;;;;;;12.2;92.2;100870;;;;
2021/11/13 12:08:04;;;;;;;22.2;18.7;;;;;;;12.3;92.2;100880;;;;
2021/11/13 12:10:04;;;;;;;22.2;18.7;;;;;;;12.2;91.9;100880;;;;
2021/11/13 12:16:04;;;;;;;22.2;18.7;;;;;;;12.1;91.5;100880;;;;
2021/11/13 12:42:04;;;;;;;21.0;16.7;;;;;;;12.2;93.6;100890;;;;
2021/11/13 12:44:04;;;;;;;21.0;16.7;;;;;;;12.1;93.6;100890;;;;
2021/11/13 12:46:04;;;;;;;21.0;16.7;;;;;;;12.2;93.1;100890;;;;
2021/11/13 12:48:04;;;;;;;18.9;16.4;;;;;;;12.3;93.1;100890;;;;
2021/11/13 12:52:04;;;;;;;18.9;16.4;;;;;;;12.4;92.2;100890;;;;
2021/11/13 12:54:04;;;;;;;18.9;16.4;;;;;;;12.3;92.5;100890;;;;
2021/11/13 13:00:04;;;;;;;18.9;16.4;;;;;;;12.4;94.1;100890;;;;
2021/11/13 13:06:04;;;;;;;18.9;16.4;;;;;;;12.5;93.5;100910;;;;
2021/11/13 13:12:04;;;;;;;27.9;20.3;;;;;;;12.6;93.6;100910;;;;
2021/11/13 13:14:04;;;;;;;27.9;20.3;;;;;;;12.5;94.0;100910;;;;
2021/11/13 13:16:05;;;;;;;27.9;20.3;;;;;;;12.6;94.8;100910;;;;
2021/11/13 13:28:04;;;;;;;24.3;21.7;;;;;;;12.7;93.8;100920;;;;
2021/11/13 13:42:04;;;;;;;24.3;21.7;;;;;;;12.6;93.2;100920;;;;
2021/11/13 13:46:04;;;;;;;24.3;21.7;;;;;;;12.7;93.1;100930;;;;
2021/11/13 13:48:04;;;;;;;23.9;20.8;;;;;;;12.6;93.7;100930;;;;
2021/11/13 14:00:04;;;;;;;23.9;20.8;;;;;;;12.7;94.0;100940;;;;
2021/11/13 14:04:04;;;;;;;23.9;20.8;;;;;;;12.8;94.2;100940;;;;
2021/11/13 14:08:04;;;;;;;20.3;18.1;;;;;;;12.9;93.0;100940;;;;
2021/11/13 14:12:05;;;;;;;20.3;18.1;;;;;;;13.0;93.7;100950;;;;
2021/11/13 14:14:04;;;;;;;20.3;18.1;;;;;;;12.9;93.8;100950;;;;
2021/11/13 14:16:14;;;;;;;20.3;18.1;;;;;;;13.0;94.2;100950;;;;
2021/11/13 14:18:04;;;;;;;20.3;18.1;;;;;;;13.1;94.5;100950;;;;
2021/11/13 14:20:04;;;;;;;20.3;18.1;;;;;;;13.2;93.8;100950;;;;
2021/11/13 14:24:04;;;;;;;20.3;18.1;;;;;;;13.1;93.3;100950;;;;
2021/11/13 14:32:04;;;;;;;18.8;16.5;;;;;;;13.0;92.2;100960;;;;
2021/11/13 14:36:04;;;;;;;18.8;16.5;;;;;;;12.8;93.0;100970;;;;
2021/11/13 14:38:04;;;;;;;18.8;16.5;;;;;;;12.9;92.8;100970;;;;
2021/11/13 14:40:04;;;;;;;18.8;16.5;;;;;;;13.0;91.6;100970;;;;
2021/11/13 14:42:09;;;;;;;18.8;16.5;;;;;;;12.8;92.1;100970;;;;
2021/11/13 14:50:04;;;;;;;15.5;12.7;;;;;;;12.6;91.4;100990;;;;
2021/11/13 14:54:04;;;;;;;15.5;12.7;;;;;;;12.5;91.6;100990;;;;
2021/11/13 15:00:04;;;;;;;15.5;12.7;;;;;;;12.4;91.6;101000;;;;
2021/11/13 15:04:05;;;;;;;15.5;12.7;;;;;;;12.3;91.4;101000;;;;
2021/11/13 15:12:04;;;;;;;8.6;7.4;;;;;;;12.2;91.9;101010;;;;
2021/11/13 15:30:05;;;;;;;12.3;11.0;;;;;;;12.1;92.0;101030;;;;
2021/11/13 15:42:12;;;;;;;12.3;11.0;;;;;;;12.0;91.7;101030;;;;
2021/11/13 15:46:04;;;;;;;12.3;11.0;;;;;;;12.1;92.0;101040;;;;
2021/11/13 15:54:05;;;;;;;12.7;10.7;;;;;;;12.1;91.9;101050;;;;
2021/11/13 15:56:04;;;;;;;12.7;10.7;;;;;;;12.0;91.4;101050;;;;
2021/11/13 16:00:04;;;;;;;12.7;10.7;;;;;;;11.9;91.6;101060;;;;
2021/11/13 16:06:04;;;;;;;12.7;10.7;;;;;;;12.0;91.9;101060;;;;
2021/11/13 16:10:05;;;;;;;15.3;12.1;;;;;;;11.9;91.7;101060;;;;
2021/11/13 16:16:04;;;;;;;15.3;12.1;;;;;;;11.8;91.7;101070;;;;
2021/11/13 16:34:04;;;;;;;19.3;15.6;;;;;;;11.7;91.8;101080;;;;
2021/11/13 16:48:04;;;;;;;33.7;25.4;;;;;;;11.6;91.9;101100;;;;
2021/11/13 16:50:04;;;;;;;33.7;25.4;;;;;;;11.7;91.6;101100;;;;
2021/11/13 16:52:04;;;;;;;33.7;25.4;;;;;;;11.6;91.3;101110;;;;
2021/11/13 16:58:04;;;;;;;33.7;25.4;;;;;;;11.5;91.2;101110;;;;
2021/11/13 17:02:05;;;;;;;33.7;25.4;;;;;;;11.4;91.3;101120;;;;
2021/11/13 17:10:04;;;;;;;39.1;25.1;;;;;;;11.3;91.3;101140;;;;
2021/11/13 17:12:04;;;;;;;39.1;25.1;;;;;;;11.2;91.3;101140;;;;
2021/11/13 17:18:05;;;;;;;39.1;25.1;;;;;;;11.1;91.2;101140;;;;
2021/11/13 17:22:04;;;;;;;39.1;25.1;;;;;;;11.0;91.0;101150;;;;
2021/11/13 17:28:05;;;;;;;22.2;18.5;;;;;;;10.9;91.1;101160;;;;
2021/11/13 17:32:04;;;;;;;22.2;18.5;;;;;;;10.8;91.1;101170;;;;
2021/11/13 17:38:04;;;;;;;22.2;18.5;;;;;;;10.7;91.1;101180;;;;
2021/11/13 17:50:04;;;;;;;25.2;20.9;;;;;;;10.6;91.4;101190;;;;
2021/11/13 18:04:04;;;;;;;25.2;20.9;;;;;;;10.7;91.9;101210;;;;
2021/11/13 18:12:04;;;;;;;33.3;24.2;;;;;;;10.8;91.9;101220;;;;
2021/11/13 18:16:11;;;;;;;33.3;24.2;;;;;;;10.7;91.5;101230;;;;
2021/11/13 18:20:04;;;;;;;33.3;24.2;;;;;;;10.8;91.9;101230;;;;
2021/11/13 18:26:04;;;;;;;34.7;25.8;;;;;;;10.9;91.5;101230;;;;
2021/11/13 18:28:04;;;;;;;34.7;25.8;;;;;;;10.8;91.5;101230;;;;
2021/11/13 18:30:04;;;;;;;34.7;25.8;;;;;;;10.7;91.5;101230;;;;
2021/11/13 18:34:04;;;;;;;34.7;25.8;;;;;;;10.6;91.2;101240;;;;
2021/11/13 18:36:04;;;;;;;34.7;25.8;;;;;;;10.7;91.3;101240;;;;
2021/11/13 18:38:05;;;;;;;34.7;25.8;;;;;;;10.6;91.3;101240;;;;
2021/11/13 18:42:04;;;;;;;34.7;25.8;;;;;;;10.5;91.4;101240;;;;
2021/11/13 18:44:04;;;;;;;34.7;25.8;;;;;;;10.6;91.4;101250;;;;
2021/11/13 19:06:04;;;;;;;52.1;33.6;;;;;;;10.7;91.0;101250;;;;
2021/11/13 19:08:04;;;;;;;52.1;33.6;;;;;;;10.6;90.7;101250;;;;
2021/11/13 19:14:04;;;;;;;52.1;33.6;;;;;;;10.5;90.6;101260;;;;
2021/11/13 19:16:04;;;;;;;52.1;33.6;;;;;;;10.4;91.0;101260;;;;
2021/11/13 19:18:04;;;;;;;52.1;33.6;;;;;;;10.5;90.9;101260;;;;
2021/11/13 19:22:05;;;;;;;52.1;33.6;;;;;;;10.4;90.6;101270;;;;
2021/11/13 19:28:04;;;;;;;40.6;27.1;;;;;;;10.3;90.6;101270;;;;
2021/11/13 19:32:14;;;;;;;40.6;27.1;;;;;;;10.2;90.1;101280;;;;
2021/11/13 19:36:04;;;;;;;40.6;27.1;;;;;;;10.1;89.7;101270;;;;
2021/11/13 19:40:05;;;;;;;40.6;27.1;;;;;;;10.0;89.6;101270;;;;
2021/11/13 19:44:05;;;;;;;40.6;27.1;;;;;;;9.9;89.4;101280;;;;
2021/11/13 19:50:04;;;;;;;58.6;34.7;;;;;;;9.8;89.2;101280;;;;
2021/11/13 19:54:04;;;;;;;58.6;34.7;;;;;;;9.7;89.1;101290;;;;
2021/11/13 19:58:04;;;;;;;58.6;34.7;;;;;;;9.6;89.3;101290;;;;
2021/11/13 20:04:04;;;;;;;58.6;34.7;;;;;;;9.5;89.2;101300;;;;
2021/11/13 20:06:05;;;;;;;53.4;35.2;;;;;;;9.6;89.4;101300;;;;
2021/11/13 20:08:04;;;;;;;53.4;35.2;;;;;;;9.5;89.4;101300;;;;
2021/11/13 20:12:05;;;;;;;53.4;35.2;;;;;;;9.4;89.4;101310;;;;
2021/11/13 20:18:04;;;;;;;53.4;35.2;;;;;;;9.5;89.7;101320;;;;
2021/11/13 20:20:04;;;;;;;53.4;35.2;;;;;;;9.4;89.8;101320;;;;
2021/11/13 20:22:04;;;;;;;53.4;35.2;;;;;;;9.5;89.9;101330;;;;
2021/11/13 20:24:04;;;;;;;53.4;35.2;;;;;;;9.4;90.0;101330;;;;
2021/11/13 20:26:04;;;;;;;47.2;29.9;;;;;;;9.5;90.4;101330;;;;
2021/11/13 20:30:04;;;;;;;47.2;29.9;;;;;;;9.4;90.5;101340;;;;
2021/11/13 20:34:04;;;;;;;47.2;29.9;;;;;;;9.3;90.9;101340;;;;
2021/11/13 20:36:04;;;;;;;47.2;29.9;;;;;;;9.4;91.2;101350;;;;
2021/11/13 20:38:10;;;;;;;47.2;29.9;;;;;;;9.3;91.4;101350;;;;
2021/11/13 20:46:04;;;;;;;46.9;29.3;;;;;;;9.4;91.3;101350;;;;
2021/11/13 20:50:05;;;;;;;46.9;29.3;;;;;;;9.3;91.4;101360;;;;
2021/11/13 20:52:04;;;;;;;46.9;29.3;;;;;;;9.4;91.4;101360;;;;
2021/11/13 20:56:04;;;;;;;46.9;29.3;;;;;;;9.5;91.1;101360;;;;
2021/11/13 21:06:05;;;;;;;52.1;30.4;;;;;;;9.6;90.6;101370;;;;
2021/11/13 21:12:05;;;;;;;52.1;30.4;;;;;;;9.5;90.1;101370;;;;
2021/11/13 21:16:04;;;;;;;52.1;30.4;;;;;;;9.6;90.1;101370;;;;
2021/11/13 21:46:05;;;;;;;53.8;35.4;;;;;;;9.7;90.1;101400;;;;
2021/11/13 22:06:04;;;;;;;58.0;36.4;;;;;;;9.8;90.1;101400;;;;
2021/11/13 22:08:05;;;;;;;58.0;36.4;;;;;;;9.7;89.9;101400;;;;
2021/11/13 22:20:04;;;;;;;58.0;36.4;;;;;;;9.8;89.7;101400;;;;
2021/11/13 22:24:04;;;;;;;58.0;36.4;;;;;;;9.7;89.9;101410;;;;
2021/11/13 22:26:04;;;;;;;55.9;38.6;;;;;;;9.8;90.4;101410;;;;
2021/11/13 22:56:04;;;;;;;66.0;38.8;;;;;;;9.7;89.8;101430;;;;
2021/11/13 22:58:04;;;;;;;66.0;38.8;;;;;;;9.8;90.0;101430;;;;
2021/11/13 23:08:04;;;;;;;57.6;34.2;;;;;;;9.7;90.1;101430;;;;
2021/11/13 23:10:04;;;;;;;57.6;34.2;;;;;;;9.8;90.1;101430;;;;
2021/11/13 23:12:04;;;;;;;57.6;34.2;;;;;;;9.7;89.8;101430;;;;
2021/11/13 23:18:04;;;;;;;57.6;34.2;;;;;;;9.8;89.7;101420;;;;
2021/11/13 23:20:04;;;;;;;57.6;34.2;;;;;;;9.7;89.7;101430;;;;
2021/11/13 23:26:04;;;;;;;73.6;37.0;;;;;;;9.8;89.9;101430;;;;
2021/11/13 23:30:04;;;;;;;73.6;37.0;;;;;;;9.7;90.1;101430;;;;
2021/11/13 23:36:04;;;;;;;73.6;37.0;;;;;;;9.8;90.0;101430;;;;
2021/11/13 23:38:04;;;;;;;73.6;37.0;;;;;;;9.7;90.1;101440;;;;
2021/11/13 23:40:05;;;;;;;73.6;37.0;;;;;;;9.6;90.1;101440;;;;
2021/11/13 23:48:04;;;;;;;68.1;38.2;;;;;;;9.7;90.8;101450;;;;
2021/11/13 23:52:04;;;;;;;68.1;38.2;;;;;;;9.6;90.8;101440;;;;
2021/11/13 23:54:04;;;;;;;68.1;38.2;;;;;;;9.7;90.8;101440;;;;
2021/11/13 23:58:04;;;;;;;68.1;38.2;;;;;;;9.8;90.4;101450;;;;
